sensor_id;sensor_type;location;lat;lon;timestamp;P1;durP1;ratioP1;P2;durP2;ratioP2
4353;SDS011;11018;51.258;6.806;2023-05-17T00:00:33;12.17;;;5.20;;
4353;SDS011;11018;51.258;6.806;2023-05-17T00:02:58;11.80;;;4.90;;
4353;SDS011;11018;51.258;6.806;2023-05-17T00:05:24;10.03;;;4.80;;
4353;SDS011;11018;51.258;6.806;2023-05-17T00:07:49;11.23;;;5.10;;
4353;SDS011;11018;51.258;6.806;2023-05-17T00:10:15;13.03;;;5.20;;
4353;SDS011;11018;51.258;6.806;2023-05-17T00:12:41;13.60;;;4.70;;
4353;SDS011;11018;51.258;6.806;2023-05-17T00:15:06;13.67;;;4.30;;
4353;SDS011;11018;51.258;6.806;2023-05-17T00:17:32;11.00;;;4.43;;
4353;SDS011;11018;51.258;6.806;2023-05-17T00:19:58;9.73;;;4.93;;
4353;SDS011;11018;51.258;6.806;2023-05-17T00:22:23;13.60;;;4.93;;
4353;SDS011;11018;51.258;6.806;2023-05-17T00:24:49;13.95;;;5.13;;
4353;SDS011;11018;51.258;6.806;2023-05-17T00:27:15;13.00;;;5.20;;
4353;SDS011;11018;51.258;6.806;2023-05-17T00:29:40;16.27;;;5.10;;
4353;SDS011;11018;51.258;6.806;2023-05-17T00:32:06;10.67;;;5.10;;
4353;SDS011;11018;51.258;6.806;2023-05-17T00:34:31;11.40;;;5.40;;
4353;SDS011;11018;51.258;6.806;2023-05-17T00:36:57;13.73;;;5.60;;
4353;SDS011;11018;51.258;6.806;2023-05-17T00:39:22;12.80;;;5.40;;
4353;SDS011;11018;51.258;6.806;2023-05-17T00:41:48;12.33;;;5.30;;
4353;SDS011;11018;51.258;6.806;2023-05-17T00:44:14;13.23;;;5.50;;
4353;SDS011;11018;51.258;6.806;2023-05-17T00:46:39;13.20;;;5.10;;
4353;SDS011;11018;51.258;6.806;2023-05-17T00:49:05;13.38;;;6.10;;
4353;SDS011;11018;51.258;6.806;2023-05-17T00:51:31;16.08;;;6.40;;
4353;SDS011;11018;51.258;6.806;2023-05-17T00:53:58;16.08;;;6.05;;
4353;SDS011;11018;51.258;6.806;2023-05-17T00:56:24;18.73;;;6.32;;
4353;SDS011;11018;51.258;6.806;2023-05-17T00:58:50;19.40;;;5.97;;
4353;SDS011;11018;51.258;6.806;2023-05-17T01:01:16;15.02;;;6.10;;
4353;SDS011;11018;51.258;6.806;2023-05-17T01:03:42;15.80;;;6.40;;
4353;SDS011;11018;51.258;6.806;2023-05-17T01:06:08;17.85;;;6.68;;
4353;SDS011;11018;51.258;6.806;2023-05-17T01:08:34;17.73;;;6.30;;
4353;SDS011;11018;51.258;6.806;2023-05-17T01:13:44;16.80;;;6.22;;
4353;SDS011;11018;51.258;6.806;2023-05-17T01:16:30;16.50;;;5.75;;
4353;SDS011;11018;51.258;6.806;2023-05-17T01:19:11;18.47;;;7.00;;
4353;SDS011;11018;51.258;6.806;2023-05-17T01:27:34;18.40;;;6.80;;
4353;SDS011;11018;51.258;6.806;2023-05-17T01:30:01;20.10;;;7.03;;
4353;SDS011;11018;51.258;6.806;2023-05-17T01:32:27;15.10;;;6.75;;
4353;SDS011;11018;51.258;6.806;2023-05-17T01:34:54;17.50;;;7.38;;
4353;SDS011;11018;51.258;6.806;2023-05-17T01:37:20;17.20;;;6.63;;
4353;SDS011;11018;51.258;6.806;2023-05-17T01:39:45;15.33;;;6.60;;
4353;SDS011;11018;51.258;6.806;2023-05-17T01:42:21;25.13;;;7.30;;
4353;SDS011;11018;51.258;6.806;2023-05-17T01:50:37;24.92;;;7.30;;
4353;SDS011;11018;51.258;6.806;2023-05-17T01:53:06;19.23;;;7.50;;
4353;SDS011;11018;51.258;6.806;2023-05-17T01:58:17;17.80;;;7.60;;
4353;SDS011;11018;51.258;6.806;2023-05-17T02:00:45;18.95;;;7.03;;
4353;SDS011;11018;51.258;6.806;2023-05-17T02:03:16;16.73;;;7.30;;
4353;SDS011;11018;51.258;6.806;2023-05-17T02:05:44;22.10;;;7.13;;
4353;SDS011;11018;51.258;6.806;2023-05-17T02:08:10;19.25;;;6.80;;
4353;SDS011;11018;51.258;6.806;2023-05-17T02:10:36;18.77;;;7.13;;
4353;SDS011;11018;51.258;6.806;2023-05-17T02:13:02;14.70;;;6.70;;
4353;SDS011;11018;51.258;6.806;2023-05-17T02:15:27;17.93;;;7.40;;
4353;SDS011;11018;51.258;6.806;2023-05-17T02:17:53;18.83;;;7.40;;
4353;SDS011;11018;51.258;6.806;2023-05-17T02:20:19;17.67;;;8.10;;
4353;SDS011;11018;51.258;6.806;2023-05-17T02:22:44;17.63;;;7.18;;
4353;SDS011;11018;51.258;6.806;2023-05-17T02:25:10;18.08;;;6.80;;
4353;SDS011;11018;51.258;6.806;2023-05-17T02:27:36;19.67;;;8.00;;
4353;SDS011;11018;51.258;6.806;2023-05-17T02:30:02;22.40;;;8.05;;
4353;SDS011;11018;51.258;6.806;2023-05-17T02:32:28;23.88;;;8.30;;
4353;SDS011;11018;51.258;6.806;2023-05-17T02:34:54;18.33;;;9.13;;
4353;SDS011;11018;51.258;6.806;2023-05-17T02:37:20;22.60;;;8.20;;
4353;SDS011;11018;51.258;6.806;2023-05-17T02:39:46;32.13;;;10.60;;
4353;SDS011;11018;51.258;6.806;2023-05-17T02:42:11;26.90;;;9.67;;
4353;SDS011;11018;51.258;6.806;2023-05-17T02:44:37;17.67;;;9.37;;
4353;SDS011;11018;51.258;6.806;2023-05-17T02:47:03;21.87;;;9.50;;
4353;SDS011;11018;51.258;6.806;2023-05-17T02:49:28;23.27;;;8.88;;
4353;SDS011;11018;51.258;6.806;2023-05-17T02:51:54;26.38;;;8.60;;
4353;SDS011;11018;51.258;6.806;2023-05-17T02:54:20;25.75;;;9.02;;
4353;SDS011;11018;51.258;6.806;2023-05-17T02:56:45;25.83;;;9.18;;
4353;SDS011;11018;51.258;6.806;2023-05-17T02:59:11;22.77;;;9.63;;
4353;SDS011;11018;51.258;6.806;2023-05-17T03:01:36;26.27;;;9.37;;
4353;SDS011;11018;51.258;6.806;2023-05-17T03:04:02;22.57;;;8.80;;
4353;SDS011;11018;51.258;6.806;2023-05-17T03:06:27;22.23;;;9.40;;
4353;SDS011;11018;51.258;6.806;2023-05-17T03:08:53;25.47;;;9.67;;
4353;SDS011;11018;51.258;6.806;2023-05-17T03:11:19;28.10;;;8.70;;
4353;SDS011;11018;51.258;6.806;2023-05-17T03:13:44;23.77;;;8.80;;
4353;SDS011;11018;51.258;6.806;2023-05-17T03:16:16;27.30;;;10.05;;
4353;SDS011;11018;51.258;6.806;2023-05-17T03:18:42;25.65;;;9.80;;
4353;SDS011;11018;51.258;6.806;2023-05-17T03:21:08;24.08;;;10.30;;
4353;SDS011;11018;51.258;6.806;2023-05-17T03:23:34;25.33;;;11.57;;
4353;SDS011;11018;51.258;6.806;2023-05-17T03:25:59;26.07;;;10.37;;
4353;SDS011;11018;51.258;6.806;2023-05-17T03:28:25;24.63;;;10.50;;
4353;SDS011;11018;51.258;6.806;2023-05-17T03:30:50;34.77;;;11.83;;
4353;SDS011;11018;51.258;6.806;2023-05-17T03:33:17;33.23;;;12.93;;
4353;SDS011;11018;51.258;6.806;2023-05-17T03:35:43;27.70;;;12.40;;
4353;SDS011;11018;51.258;6.806;2023-05-17T03:38:10;32.78;;;12.70;;
4353;SDS011;11018;51.258;6.806;2023-05-17T03:40:36;36.78;;;13.15;;
4353;SDS011;11018;51.258;6.806;2023-05-17T03:43:02;32.00;;;13.10;;
4353;SDS011;11018;51.258;6.806;2023-05-17T03:45:27;31.40;;;13.70;;
4353;SDS011;11018;51.258;6.806;2023-05-17T03:47:53;29.63;;;13.50;;
4353;SDS011;11018;51.258;6.806;2023-05-17T03:50:18;33.07;;;13.60;;
4353;SDS011;11018;51.258;6.806;2023-05-17T03:52:44;25.77;;;13.33;;
4353;SDS011;11018;51.258;6.806;2023-05-17T03:55:10;29.90;;;13.37;;
4353;SDS011;11018;51.258;6.806;2023-05-17T03:57:36;31.53;;;12.93;;
4353;SDS011;11018;51.258;6.806;2023-05-17T04:00:01;33.75;;;15.55;;
4353;SDS011;11018;51.258;6.806;2023-05-17T04:02:30;37.97;;;14.65;;
4353;SDS011;11018;51.258;6.806;2023-05-17T04:04:56;27.73;;;15.27;;
4353;SDS011;11018;51.258;6.806;2023-05-17T04:07:21;27.07;;;14.30;;
4353;SDS011;11018;51.258;6.806;2023-05-17T04:09:47;29.47;;;13.70;;
4353;SDS011;11018;51.258;6.806;2023-05-17T04:12:13;30.57;;;13.97;;
4353;SDS011;11018;51.258;6.806;2023-05-17T04:14:39;33.83;;;13.17;;
4353;SDS011;11018;51.258;6.806;2023-05-17T04:17:04;30.40;;;14.15;;
4353;SDS011;11018;51.258;6.806;2023-05-17T04:19:30;29.95;;;13.20;;
4353;SDS011;11018;51.258;6.806;2023-05-17T04:21:56;27.77;;;12.52;;
4353;SDS011;11018;51.258;6.806;2023-05-17T04:24:21;22.50;;;12.60;;
4353;SDS011;11018;51.258;6.806;2023-05-17T04:26:47;32.22;;;14.30;;
4353;SDS011;11018;51.258;6.806;2023-05-17T04:29:12;30.25;;;14.35;;
4353;SDS011;11018;51.258;6.806;2023-05-17T04:31:38;29.45;;;14.13;;
4353;SDS011;11018;51.258;6.806;2023-05-17T04:34:03;28.17;;;14.83;;
4353;SDS011;11018;51.258;6.806;2023-05-17T04:36:29;27.67;;;14.00;;
4353;SDS011;11018;51.258;6.806;2023-05-17T04:38:55;33.93;;;13.20;;
4353;SDS011;11018;51.258;6.806;2023-05-17T04:41:21;28.88;;;14.05;;
4353;SDS011;11018;51.258;6.806;2023-05-17T04:43:47;30.17;;;13.18;;
4353;SDS011;11018;51.258;6.806;2023-05-17T04:46:13;33.70;;;13.52;;
4353;SDS011;11018;51.258;6.806;2023-05-17T04:48:38;27.73;;;12.68;;
4353;SDS011;11018;51.258;6.806;2023-05-17T04:51:04;27.73;;;13.50;;
4353;SDS011;11018;51.258;6.806;2023-05-17T04:53:30;33.83;;;13.60;;
4353;SDS011;11018;51.258;6.806;2023-05-17T04:55:56;34.63;;;13.98;;
4353;SDS011;11018;51.258;6.806;2023-05-17T04:58:22;28.27;;;13.27;;
4353;SDS011;11018;51.258;6.806;2023-05-17T05:00:48;34.93;;;13.80;;
4353;SDS011;11018;51.258;6.806;2023-05-17T05:03:14;30.20;;;14.00;;
4353;SDS011;11018;51.258;6.806;2023-05-17T05:05:39;34.53;;;13.88;;
4353;SDS011;11018;51.258;6.806;2023-05-17T05:08:05;28.40;;;13.77;;
4353;SDS011;11018;51.258;6.806;2023-05-17T05:10:30;33.05;;;14.20;;
4353;SDS011;11018;51.258;6.806;2023-05-17T05:12:56;37.28;;;14.35;;
4353;SDS011;11018;51.258;6.806;2023-05-17T05:15:22;30.40;;;15.25;;
4353;SDS011;11018;51.258;6.806;2023-05-17T05:17:48;39.10;;;15.10;;
4353;SDS011;11018;51.258;6.806;2023-05-17T05:20:13;39.70;;;15.20;;
4353;SDS011;11018;51.258;6.806;2023-05-17T05:22:39;36.80;;;15.23;;
4353;SDS011;11018;51.258;6.806;2023-05-17T05:25:05;34.80;;;15.80;;
4353;SDS011;11018;51.258;6.806;2023-05-17T05:27:31;42.23;;;18.90;;
4353;SDS011;11018;51.258;6.806;2023-05-17T05:29:59;39.00;;;19.58;;
4353;SDS011;11018;51.258;6.806;2023-05-17T05:32:25;40.83;;;19.83;;
4353;SDS011;11018;51.258;6.806;2023-05-17T05:34:50;51.78;;;25.13;;
4353;SDS011;11018;51.258;6.806;2023-05-17T05:37:16;56.65;;;26.58;;
4353;SDS011;11018;51.258;6.806;2023-05-17T05:39:43;64.05;;;28.50;;
4353;SDS011;11018;51.258;6.806;2023-05-17T05:42:09;58.28;;;26.58;;
4353;SDS011;11018;51.258;6.806;2023-05-17T05:44:35;55.45;;;25.50;;
4353;SDS011;11018;51.258;6.806;2023-05-17T05:47:00;45.60;;;24.05;;
4353;SDS011;11018;51.258;6.806;2023-05-17T05:49:26;53.85;;;23.52;;
4353;SDS011;11018;51.258;6.806;2023-05-17T05:51:51;52.83;;;22.40;;
4353;SDS011;11018;51.258;6.806;2023-05-17T05:54:17;45.60;;;19.60;;
4353;SDS011;11018;51.258;6.806;2023-05-17T05:56:42;46.03;;;20.67;;
4353;SDS011;11018;51.258;6.806;2023-05-17T05:59:08;50.47;;;21.30;;
4353;SDS011;11018;51.258;6.806;2023-05-17T06:01:33;42.07;;;19.80;;
4353;SDS011;11018;51.258;6.806;2023-05-17T06:04:08;42.13;;;18.87;;
4353;SDS011;11018;51.258;6.806;2023-05-17T06:06:37;44.70;;;17.50;;
4353;SDS011;11018;51.258;6.806;2023-05-17T06:09:02;41.63;;;19.00;;
4353;SDS011;11018;51.258;6.806;2023-05-17T06:11:30;40.42;;;17.33;;
4353;SDS011;11018;51.258;6.806;2023-05-17T06:13:56;44.90;;;15.75;;
4353;SDS011;11018;51.258;6.806;2023-05-17T06:16:21;37.97;;;15.38;;
4353;SDS011;11018;51.258;6.806;2023-05-17T06:18:47;31.88;;;14.10;;
4353;SDS011;11018;51.258;6.806;2023-05-17T06:21:12;38.93;;;14.70;;
4353;SDS011;11018;51.258;6.806;2023-05-17T06:23:40;40.40;;;15.18;;
4353;SDS011;11018;51.258;6.806;2023-05-17T06:26:05;35.05;;;14.45;;
4353;SDS011;11018;51.258;6.806;2023-05-17T06:28:34;33.83;;;11.38;;
4353;SDS011;11018;51.258;6.806;2023-05-17T06:31:00;31.50;;;9.70;;
4353;SDS011;11018;51.258;6.806;2023-05-17T06:33:25;21.37;;;6.43;;
4353;SDS011;11018;51.258;6.806;2023-05-17T06:35:51;20.67;;;6.57;;
4353;SDS011;11018;51.258;6.806;2023-05-17T06:38:17;19.10;;;5.07;;
4353;SDS011;11018;51.258;6.806;2023-05-17T06:40:42;18.30;;;4.80;;
4353;SDS011;11018;51.258;6.806;2023-05-17T06:43:08;20.70;;;5.17;;
4353;SDS011;11018;51.258;6.806;2023-05-17T06:45:33;21.60;;;4.80;;
4353;SDS011;11018;51.258;6.806;2023-05-17T06:47:59;23.17;;;4.78;;
4353;SDS011;11018;51.258;6.806;2023-05-17T06:50:24;17.75;;;4.40;;
4353;SDS011;11018;51.258;6.806;2023-05-17T06:52:52;16.80;;;4.13;;
4353;SDS011;11018;51.258;6.806;2023-05-17T06:55:18;17.15;;;3.83;;
4353;SDS011;11018;51.258;6.806;2023-05-17T06:57:43;16.23;;;3.85;;
4353;SDS011;11018;51.258;6.806;2023-05-17T07:00:09;16.77;;;3.83;;
4353;SDS011;11018;51.258;6.806;2023-05-17T07:02:35;19.65;;;4.45;;
4353;SDS011;11018;51.258;6.806;2023-05-17T07:05:02;17.48;;;3.70;;
4353;SDS011;11018;51.258;6.806;2023-05-17T07:07:30;16.70;;;4.13;;
4353;SDS011;11018;51.258;6.806;2023-05-17T07:09:55;13.03;;;2.90;;
4353;SDS011;11018;51.258;6.806;2023-05-17T07:12:21;12.00;;;3.20;;
4353;SDS011;11018;51.258;6.806;2023-05-17T07:14:46;19.10;;;3.77;;
4353;SDS011;11018;51.258;6.806;2023-05-17T07:17:12;14.73;;;3.60;;
4353;SDS011;11018;51.258;6.806;2023-05-17T07:19:37;15.82;;;4.05;;
4353;SDS011;11018;51.258;6.806;2023-05-17T07:22:03;17.17;;;3.55;;
4353;SDS011;11018;51.258;6.806;2023-05-17T07:24:29;17.67;;;3.60;;
4353;SDS011;11018;51.258;6.806;2023-05-17T07:26:54;12.90;;;2.83;;
4353;SDS011;11018;51.258;6.806;2023-05-17T07:29:20;13.35;;;3.38;;
4353;SDS011;11018;51.258;6.806;2023-05-17T07:31:45;12.02;;;3.15;;
4353;SDS011;11018;51.258;6.806;2023-05-17T07:34:12;16.42;;;3.53;;
4353;SDS011;11018;51.258;6.806;2023-05-17T07:36:37;15.52;;;3.20;;
4353;SDS011;11018;51.258;6.806;2023-05-17T07:39:03;22.97;;;5.07;;
4353;SDS011;11018;51.258;6.806;2023-05-17T07:41:29;13.17;;;3.30;;
4353;SDS011;11018;51.258;6.806;2023-05-17T07:43:55;14.57;;;3.80;;
4353;SDS011;11018;51.258;6.806;2023-05-17T07:46:21;17.00;;;4.60;;
4353;SDS011;11018;51.258;6.806;2023-05-17T07:48:46;14.07;;;3.93;;
4353;SDS011;11018;51.258;6.806;2023-05-17T07:51:12;15.88;;;4.20;;
4353;SDS011;11018;51.258;6.806;2023-05-17T07:53:38;14.82;;;3.65;;
4353;SDS011;11018;51.258;6.806;2023-05-17T07:56:03;18.70;;;3.58;;
4353;SDS011;11018;51.258;6.806;2023-05-17T07:58:29;15.18;;;3.33;;
4353;SDS011;11018;51.258;6.806;2023-05-17T08:00:55;15.32;;;4.20;;
4353;SDS011;11018;51.258;6.806;2023-05-17T08:03:20;18.67;;;4.40;;
4353;SDS011;11018;51.258;6.806;2023-05-17T08:05:46;16.98;;;4.30;;
4353;SDS011;11018;51.258;6.806;2023-05-17T08:08:12;19.88;;;3.90;;
4353;SDS011;11018;51.258;6.806;2023-05-17T08:10:37;17.67;;;3.92;;
4353;SDS011;11018;51.258;6.806;2023-05-17T08:13:04;12.90;;;3.03;;
4353;SDS011;11018;51.258;6.806;2023-05-17T08:15:30;13.25;;;3.35;;
4353;SDS011;11018;51.258;6.806;2023-05-17T08:17:55;15.30;;;4.30;;
4353;SDS011;11018;51.258;6.806;2023-05-17T08:20:21;19.17;;;3.90;;
4353;SDS011;11018;51.258;6.806;2023-05-17T08:22:46;17.20;;;3.23;;
4353;SDS011;11018;51.258;6.806;2023-05-17T08:25:12;17.97;;;4.00;;
4353;SDS011;11018;51.258;6.806;2023-05-17T08:27:38;17.03;;;3.10;;
4353;SDS011;11018;51.258;6.806;2023-05-17T08:30:03;18.67;;;3.67;;
4353;SDS011;11018;51.258;6.806;2023-05-17T08:32:29;13.10;;;3.58;;
4353;SDS011;11018;51.258;6.806;2023-05-17T08:34:55;12.90;;;3.93;;
4353;SDS011;11018;51.258;6.806;2023-05-17T08:37:21;15.98;;;3.30;;
4353;SDS011;11018;51.258;6.806;2023-05-17T08:39:47;18.10;;;3.42;;
4353;SDS011;11018;51.258;6.806;2023-05-17T08:42:13;16.90;;;3.70;;
4353;SDS011;11018;51.258;6.806;2023-05-17T08:44:42;19.55;;;5.15;;
4353;SDS011;11018;51.258;6.806;2023-05-17T08:47:08;20.67;;;4.83;;
4353;SDS011;11018;51.258;6.806;2023-05-17T08:49:35;22.90;;;5.32;;
4353;SDS011;11018;51.258;6.806;2023-05-17T08:52:02;19.67;;;4.60;;
4353;SDS011;11018;51.258;6.806;2023-05-17T08:54:34;23.73;;;4.30;;
4353;SDS011;11018;51.258;6.806;2023-05-17T08:57:03;16.02;;;4.03;;
4353;SDS011;11018;51.258;6.806;2023-05-17T08:59:30;14.35;;;4.10;;
4353;SDS011;11018;51.258;6.806;2023-05-17T09:01:59;15.23;;;4.05;;
4353;SDS011;11018;51.258;6.806;2023-05-17T09:04:25;18.90;;;4.85;;
4353;SDS011;11018;51.258;6.806;2023-05-17T09:06:52;18.13;;;5.18;;
4353;SDS011;11018;51.258;6.806;2023-05-17T09:09:18;16.03;;;4.60;;
4353;SDS011;11018;51.258;6.806;2023-05-17T09:11:44;14.13;;;4.40;;
4353;SDS011;11018;51.258;6.806;2023-05-17T09:14:09;16.77;;;4.37;;
4353;SDS011;11018;51.258;6.806;2023-05-17T09:16:35;16.60;;;3.90;;
4353;SDS011;11018;51.258;6.806;2023-05-17T09:19:05;21.13;;;5.03;;
4353;SDS011;11018;51.258;6.806;2023-05-17T09:21:32;20.80;;;4.40;;
4353;SDS011;11018;51.258;6.806;2023-05-17T09:23:59;14.40;;;3.97;;
4353;SDS011;11018;51.258;6.806;2023-05-17T09:26:36;21.10;;;4.80;;
4353;SDS011;11018;51.258;6.806;2023-05-17T09:29:06;17.57;;;4.67;;
4353;SDS011;11018;51.258;6.806;2023-05-17T09:31:35;15.00;;;4.60;;
4353;SDS011;11018;51.258;6.806;2023-05-17T09:34:01;12.00;;;4.67;;
4353;SDS011;11018;51.258;6.806;2023-05-17T09:36:26;11.87;;;3.60;;
4353;SDS011;11018;51.258;6.806;2023-05-17T09:38:56;18.03;;;4.80;;
4353;SDS011;11018;51.258;6.806;2023-05-17T09:41:30;19.38;;;4.88;;
4353;SDS011;11018;51.258;6.806;2023-05-17T09:43:58;16.92;;;4.88;;
4353;SDS011;11018;51.258;6.806;2023-05-17T09:46:25;14.85;;;4.40;;
4353;SDS011;11018;51.258;6.806;2023-05-17T09:48:54;16.75;;;4.75;;
4353;SDS011;11018;51.258;6.806;2023-05-17T09:51:36;17.50;;;4.70;;
4353;SDS011;11018;51.258;6.806;2023-05-17T09:54:06;16.55;;;4.68;;
4353;SDS011;11018;51.258;6.806;2023-05-17T09:56:32;13.90;;;4.80;;
4353;SDS011;11018;51.258;6.806;2023-05-17T09:59:17;14.40;;;5.13;;
4353;SDS011;11018;51.258;6.806;2023-05-17T10:01:44;24.52;;;6.28;;
4353;SDS011;11018;51.258;6.806;2023-05-17T10:04:14;11.75;;;5.00;;
4353;SDS011;11018;51.258;6.806;2023-05-17T10:06:44;24.03;;;5.13;;
4353;SDS011;11018;51.258;6.806;2023-05-17T10:09:13;17.95;;;5.00;;
4353;SDS011;11018;51.258;6.806;2023-05-17T10:11:40;14.07;;;4.80;;
4353;SDS011;11018;51.258;6.806;2023-05-17T10:14:10;12.38;;;3.78;;
4353;SDS011;11018;51.258;6.806;2023-05-17T10:16:37;16.02;;;4.80;;
4353;SDS011;11018;51.258;6.806;2023-05-17T10:19:04;14.77;;;4.00;;
4353;SDS011;11018;51.258;6.806;2023-05-17T10:21:30;16.17;;;3.22;;
4353;SDS011;11018;51.258;6.806;2023-05-17T10:24:00;14.05;;;4.03;;
4353;SDS011;11018;51.258;6.806;2023-05-17T10:26:27;12.55;;;4.72;;
4353;SDS011;11018;51.258;6.806;2023-05-17T10:28:57;11.37;;;4.50;;
4353;SDS011;11018;51.258;6.806;2023-05-17T10:31:25;14.95;;;4.40;;
4353;SDS011;11018;51.258;6.806;2023-05-17T10:34:00;17.85;;;4.57;;
4353;SDS011;11018;51.258;6.806;2023-05-17T10:36:26;11.23;;;3.70;;
4353;SDS011;11018;51.258;6.806;2023-05-17T10:38:52;11.82;;;4.80;;
4353;SDS011;11018;51.258;6.806;2023-05-17T10:41:20;18.40;;;4.57;;
4353;SDS011;11018;51.258;6.806;2023-05-17T10:43:48;16.20;;;3.97;;
4353;SDS011;11018;51.258;6.806;2023-05-17T10:46:15;15.45;;;3.90;;
4353;SDS011;11018;51.258;6.806;2023-05-17T10:48:42;14.80;;;4.20;;
4353;SDS011;11018;51.258;6.806;2023-05-17T10:51:08;17.73;;;4.70;;
4353;SDS011;11018;51.258;6.806;2023-05-17T10:56:32;18.90;;;4.30;;
4353;SDS011;11018;51.258;6.806;2023-05-17T11:01:50;16.77;;;4.55;;
4353;SDS011;11018;51.258;6.806;2023-05-17T11:04:24;14.77;;;4.93;;
4353;SDS011;11018;51.258;6.806;2023-05-17T11:09:53;14.70;;;4.10;;
4353;SDS011;11018;51.258;6.806;2023-05-17T11:15:22;12.93;;;4.15;;
4353;SDS011;11018;51.258;6.806;2023-05-17T11:17:50;15.40;;;4.45;;
4353;SDS011;11018;51.258;6.806;2023-05-17T11:23:04;11.55;;;4.43;;
4353;SDS011;11018;51.258;6.806;2023-05-17T11:25:32;14.82;;;4.60;;
4353;SDS011;11018;51.258;6.806;2023-05-17T11:28:00;10.17;;;3.67;;
4353;SDS011;11018;51.258;6.806;2023-05-17T11:30:31;13.45;;;4.05;;
4353;SDS011;11018;51.258;6.806;2023-05-17T11:33:01;12.50;;;4.00;;
4353;SDS011;11018;51.258;6.806;2023-05-17T11:35:30;11.13;;;4.50;;
4353;SDS011;11018;51.258;6.806;2023-05-17T11:38:13;14.10;;;4.60;;
4353;SDS011;11018;51.258;6.806;2023-05-17T11:40:43;10.90;;;4.00;;
4353;SDS011;11018;51.258;6.806;2023-05-17T11:45:50;6.55;;;3.95;;
4353;SDS011;11018;51.258;6.806;2023-05-17T11:48:22;8.13;;;3.70;;
4353;SDS011;11018;51.258;6.806;2023-05-17T11:50:49;15.15;;;4.57;;
4353;SDS011;11018;51.258;6.806;2023-05-17T11:53:16;12.30;;;4.15;;
4353;SDS011;11018;51.258;6.806;2023-05-17T11:55:43;12.52;;;4.03;;
4353;SDS011;11018;51.258;6.806;2023-05-17T11:58:15;9.65;;;3.88;;
4353;SDS011;11018;51.258;6.806;2023-05-17T12:00:43;12.63;;;3.90;;
4353;SDS011;11018;51.258;6.806;2023-05-17T12:03:19;10.52;;;3.90;;
4353;SDS011;11018;51.258;6.806;2023-05-17T12:05:47;8.50;;;3.58;;
4353;SDS011;11018;51.258;6.806;2023-05-17T12:08:15;14.60;;;4.53;;
4353;SDS011;11018;51.258;6.806;2023-05-17T12:10:53;17.75;;;4.13;;
4353;SDS011;11018;51.258;6.806;2023-05-17T12:13:21;15.20;;;4.75;;
4353;SDS011;11018;51.258;6.806;2023-05-17T12:15:54;10.80;;;4.17;;
4353;SDS011;11018;51.258;6.806;2023-05-17T12:18:47;13.27;;;4.20;;
4353;SDS011;11018;51.258;6.806;2023-05-17T12:21:14;14.82;;;5.00;;
4353;SDS011;11018;51.258;6.806;2023-05-17T12:23:41;17.95;;;4.30;;
4353;SDS011;11018;51.258;6.806;2023-05-17T12:26:08;12.93;;;3.80;;
4353;SDS011;11018;51.258;6.806;2023-05-17T12:28:38;10.45;;;4.00;;
4353;SDS011;11018;51.258;6.806;2023-05-17T12:31:07;10.02;;;4.20;;
4353;SDS011;11018;51.258;6.806;2023-05-17T12:33:38;9.52;;;3.92;;
4353;SDS011;11018;51.258;6.806;2023-05-17T12:36:06;13.43;;;4.32;;
4353;SDS011;11018;51.258;6.806;2023-05-17T12:38:36;17.65;;;4.85;;
4353;SDS011;11018;51.258;6.806;2023-05-17T12:41:05;11.07;;;3.85;;
4353;SDS011;11018;51.258;6.806;2023-05-17T12:43:33;11.80;;;3.78;;
4353;SDS011;11018;51.258;6.806;2023-05-17T12:46:10;12.60;;;3.53;;
4353;SDS011;11018;51.258;6.806;2023-05-17T12:48:38;13.23;;;3.53;;
4353;SDS011;11018;51.258;6.806;2023-05-17T12:51:05;8.05;;;3.47;;
4353;SDS011;11018;51.258;6.806;2023-05-17T12:53:38;10.00;;;4.03;;
4353;SDS011;11018;51.258;6.806;2023-05-17T12:56:26;11.18;;;3.78;;
4353;SDS011;11018;51.258;6.806;2023-05-17T12:59:12;9.25;;;4.10;;
4353;SDS011;11018;51.258;6.806;2023-05-17T13:01:44;18.27;;;4.80;;
4353;SDS011;11018;51.258;6.806;2023-05-17T13:04:10;10.02;;;3.95;;
4353;SDS011;11018;51.258;6.806;2023-05-17T13:09:23;11.90;;;4.30;;
4353;SDS011;11018;51.258;6.806;2023-05-17T13:17:01;13.68;;;4.78;;
4353;SDS011;11018;51.258;6.806;2023-05-17T13:19:28;14.63;;;4.55;;
4353;SDS011;11018;51.258;6.806;2023-05-17T13:21:53;13.27;;;4.82;;
4353;SDS011;11018;51.258;6.806;2023-05-17T13:24:19;12.63;;;5.53;;
4353;SDS011;11018;51.258;6.806;2023-05-17T13:26:45;12.33;;;4.37;;
4353;SDS011;11018;51.258;6.806;2023-05-17T13:29:10;18.17;;;5.43;;
4353;SDS011;11018;51.258;6.806;2023-05-17T13:31:36;11.20;;;4.40;;
4353;SDS011;11018;51.258;6.806;2023-05-17T13:34:01;10.68;;;3.80;;
4353;SDS011;11018;51.258;6.806;2023-05-17T13:36:27;12.30;;;4.50;;
4353;SDS011;11018;51.258;6.806;2023-05-17T13:38:52;13.40;;;4.30;;
4353;SDS011;11018;51.258;6.806;2023-05-17T13:41:20;10.40;;;4.50;;
4353;SDS011;11018;51.258;6.806;2023-05-17T13:43:46;13.52;;;4.65;;
4353;SDS011;11018;51.258;6.806;2023-05-17T13:46:11;11.80;;;3.90;;
4353;SDS011;11018;51.258;6.806;2023-05-17T13:48:37;12.57;;;3.90;;
4353;SDS011;11018;51.258;6.806;2023-05-17T13:51:02;13.10;;;3.83;;
4353;SDS011;11018;51.258;6.806;2023-05-17T13:53:28;7.88;;;3.60;;
4353;SDS011;11018;51.258;6.806;2023-05-17T13:55:54;11.90;;;3.57;;
4353;SDS011;11018;51.258;6.806;2023-05-17T13:58:19;12.10;;;4.60;;
4353;SDS011;11018;51.258;6.806;2023-05-17T14:00:45;15.27;;;5.30;;
4353;SDS011;11018;51.258;6.806;2023-05-17T14:03:10;8.13;;;3.92;;
4353;SDS011;11018;51.258;6.806;2023-05-17T14:05:37;8.82;;;3.35;;
4353;SDS011;11018;51.258;6.806;2023-05-17T14:08:03;10.23;;;3.97;;
4353;SDS011;11018;51.258;6.806;2023-05-17T14:10:28;10.20;;;3.67;;
4353;SDS011;11018;51.258;6.806;2023-05-17T14:12:54;10.00;;;3.40;;
4353;SDS011;11018;51.258;6.806;2023-05-17T14:15:20;9.17;;;3.37;;
4353;SDS011;11018;51.258;6.806;2023-05-17T14:17:47;11.93;;;3.30;;
4353;SDS011;11018;51.258;6.806;2023-05-17T14:20:13;9.75;;;3.17;;
4353;SDS011;11018;51.258;6.806;2023-05-17T14:22:39;9.20;;;3.15;;
4353;SDS011;11018;51.258;6.806;2023-05-17T14:25:05;8.90;;;3.00;;
4353;SDS011;11018;51.258;6.806;2023-05-17T14:27:32;16.73;;;3.43;;
4353;SDS011;11018;51.258;6.806;2023-05-17T14:29:57;8.80;;;3.23;;
4353;SDS011;11018;51.258;6.806;2023-05-17T14:32:25;8.40;;;3.13;;
4353;SDS011;11018;51.258;6.806;2023-05-17T14:34:51;10.68;;;3.30;;
4353;SDS011;11018;51.258;6.806;2023-05-17T14:37:16;8.70;;;3.20;;
4353;SDS011;11018;51.258;6.806;2023-05-17T14:39:42;8.20;;;3.33;;
4353;SDS011;11018;51.258;6.806;2023-05-17T14:42:07;10.50;;;3.58;;
4353;SDS011;11018;51.258;6.806;2023-05-17T14:44:33;14.90;;;3.85;;
4353;SDS011;11018;51.258;6.806;2023-05-17T14:47:02;13.52;;;3.40;;
4353;SDS011;11018;51.258;6.806;2023-05-17T14:49:30;10.27;;;3.17;;
4353;SDS011;11018;51.258;6.806;2023-05-17T14:51:56;9.80;;;2.80;;
4353;SDS011;11018;51.258;6.806;2023-05-17T14:54:21;13.10;;;3.10;;
4353;SDS011;11018;51.258;6.806;2023-05-17T14:56:49;10.65;;;3.17;;
4353;SDS011;11018;51.258;6.806;2023-05-17T14:59:14;11.80;;;3.22;;
4353;SDS011;11018;51.258;6.806;2023-05-17T15:01:40;7.87;;;2.97;;
4353;SDS011;11018;51.258;6.806;2023-05-17T15:04:06;9.00;;;2.73;;
4353;SDS011;11018;51.258;6.806;2023-05-17T15:06:33;10.15;;;3.08;;
4353;SDS011;11018;51.258;6.806;2023-05-17T15:08:58;8.07;;;2.60;;
4353;SDS011;11018;51.258;6.806;2023-05-17T15:11:26;10.30;;;2.90;;
4353;SDS011;11018;51.258;6.806;2023-05-17T15:13:52;8.63;;;2.80;;
4353;SDS011;11018;51.258;6.806;2023-05-17T15:16:17;8.00;;;2.80;;
4353;SDS011;11018;51.258;6.806;2023-05-17T15:18:43;11.40;;;2.95;;
4353;SDS011;11018;51.258;6.806;2023-05-17T15:21:09;9.27;;;3.10;;
4353;SDS011;11018;51.258;6.806;2023-05-17T15:23:34;12.73;;;3.50;;
4353;SDS011;11018;51.258;6.806;2023-05-17T15:26:01;14.30;;;3.40;;